createdAt,value
2022-08-19T00:01:11.370Z,16.83
2022-08-19T00:03:14.047Z,17.07
2022-08-19T00:05:17.416Z,16.53
2022-08-19T00:07:20.367Z,16.23
2022-08-19T00:09:24.794Z,16.73
2022-08-19T00:11:28.508Z,15.20
2022-08-19T00:13:31.198Z,15.40
2022-08-19T00:15:35.378Z,17.13
2022-08-19T00:17:38.056Z,16.27
2022-08-19T00:19:44.799Z,16.77
2022-08-19T00:21:47.492Z,17.30
2022-08-19T00:23:50.139Z,16.47
2022-08-19T00:25:52.982Z,15.83
2022-08-19T00:27:55.756Z,17.47
2022-08-19T00:29:59.821Z,16.33
2022-08-19T00:32:04.202Z,16.33
2022-08-19T00:34:07.305Z,16.60
2022-08-19T00:36:11.378Z,17.03
2022-08-19T00:38:14.043Z,16.07
2022-08-19T00:40:19.193Z,17.20
2022-08-19T00:42:23.659Z,18.00
2022-08-19T00:44:28.976Z,16.43
2022-08-19T00:46:33.525Z,17.57
2022-08-19T00:48:38.101Z,18.17
2022-08-19T00:50:52.048Z,17.53
2022-08-19T00:52:55.689Z,18.00
2022-08-19T00:54:59.882Z,17.43
2022-08-19T00:57:04.831Z,16.60
2022-08-19T00:59:09.851Z,17.00
2022-08-19T01:01:12.931Z,17.20
2022-08-19T01:03:20.244Z,16.43
2022-08-19T01:05:28.357Z,17.30
2022-08-19T01:07:35.974Z,17.47
2022-08-19T01:09:41.122Z,17.30
2022-08-19T01:11:46.385Z,16.70
2022-08-19T01:13:50.183Z,17.73
2022-08-19T01:16:00.589Z,16.70
2022-08-19T01:18:08.274Z,18.60
2022-08-19T01:20:14.180Z,17.53
2022-08-19T01:22:31.438Z,17.80
2022-08-19T01:24:37.100Z,16.63
2022-08-19T01:26:53.984Z,16.80
2022-08-19T01:29:01.878Z,17.03
2022-08-19T01:31:08.220Z,17.57
2022-08-19T01:33:11.060Z,17.07
2022-08-19T01:35:19.086Z,17.70
2022-08-19T01:37:24.970Z,17.77
2022-08-19T01:39:30.316Z,17.50
2022-08-19T01:41:34.572Z,17.17
2022-08-19T01:43:37.386Z,16.80
2022-08-19T01:46:00.457Z,16.50
2022-08-19T01:48:03.263Z,16.77
2022-08-19T01:50:08.150Z,18.10
2022-08-19T01:52:10.882Z,17.90
2022-08-19T01:54:23.389Z,19.20
2022-08-19T01:56:30.468Z,17.30
2022-08-19T01:58:42.571Z,17.00
2022-08-19T02:00:46.160Z,18.13
2022-08-19T02:02:48.881Z,18.10
2022-08-19T02:04:51.677Z,18.37
2022-08-19T02:06:54.369Z,18.30
2022-08-19T02:08:57.975Z,18.07
2022-08-19T02:11:00.667Z,18.60
2022-08-19T02:13:03.997Z,17.23
2022-08-19T02:15:09.502Z,18.60
2022-08-19T02:17:12.184Z,17.80
2022-08-19T02:19:15.819Z,20.00
2022-08-19T02:21:18.935Z,19.33
2022-08-19T02:23:21.707Z,19.53
2022-08-19T02:25:24.417Z,18.30
2022-08-19T02:27:27.508Z,20.67
2022-08-19T02:29:30.238Z,19.13
2022-08-19T02:31:34.319Z,19.77
2022-08-19T02:33:36.971Z,19.83
2022-08-19T02:35:43.213Z,19.27
2022-08-19T02:38:03.994Z,19.30
2022-08-19T02:40:12.504Z,19.73
2022-08-19T02:42:15.506Z,20.10
2022-08-19T02:44:29.662Z,18.77
2022-08-19T02:46:35.387Z,20.73
2022-08-19T02:48:38.091Z,20.30
2022-08-19T02:50:41.561Z,20.60
2022-08-19T02:52:56.530Z,20.13
2022-08-19T02:54:59.249Z,20.47
2022-08-19T02:57:02.014Z,22.40
2022-08-19T02:59:12.784Z,20.40
2022-08-19T03:01:23.542Z,21.20
2022-08-19T03:03:28.054Z,20.43
2022-08-19T03:05:47.902Z,22.73
2022-08-19T03:07:53.950Z,21.13
2022-08-19T03:09:56.596Z,21.77
2022-08-19T03:11:59.329Z,21.03
2022-08-19T03:14:04.572Z,22.87
2022-08-19T03:16:07.778Z,22.87
2022-08-19T03:18:10.561Z,22.97
2022-08-19T03:20:16.991Z,21.63
2022-08-19T03:22:19.635Z,23.63
2022-08-19T03:24:23.504Z,24.40
2022-08-19T03:26:26.321Z,23.70
2022-08-19T03:28:29.353Z,23.70
2022-08-19T03:30:32.515Z,24.50
2022-08-19T03:32:36.312Z,23.70
2022-08-19T03:34:48.046Z,26.20
2022-08-19T03:36:52.157Z,24.10
2022-08-19T03:38:59.799Z,24.17
2022-08-19T03:41:07.263Z,25.80
2022-08-19T03:43:09.981Z,24.03
2022-08-19T03:45:12.662Z,23.93
2022-08-19T03:47:17.463Z,23.93
2022-08-19T03:49:21.571Z,22.87
2022-08-19T03:51:33.688Z,23.93
2022-08-19T03:53:37.884Z,22.30
2022-08-19T03:55:42.588Z,24.70
2022-08-19T03:57:46.038Z,24.37
2022-08-19T03:59:48.768Z,24.13
2022-08-19T04:01:51.425Z,25.80
2022-08-19T04:03:54.959Z,25.90
2022-08-19T04:05:58.433Z,24.93
2022-08-19T04:08:01.516Z,25.57
2022-08-19T04:10:06.995Z,25.97
2022-08-19T04:12:13.385Z,26.00
2022-08-19T04:14:19.529Z,25.43
2022-08-19T04:16:23.734Z,26.40
2022-08-19T04:18:39.910Z,27.00
2022-08-19T04:20:47.657Z,25.30
2022-08-19T04:22:50.476Z,24.30
2022-08-19T04:24:53.146Z,26.50
2022-08-19T04:26:57.220Z,27.20
2022-08-19T04:29:00.227Z,27.70
2022-08-19T04:31:02.918Z,28.40
2022-08-19T04:33:05.583Z,27.47
2022-08-19T04:35:17.705Z,27.97
2022-08-19T04:37:21.994Z,26.63
2022-08-19T04:39:48.079Z,27.40
2022-08-19T04:42:08.843Z,26.43
2022-08-19T04:44:14.732Z,28.00
2022-08-19T04:46:28.540Z,25.50
2022-08-19T04:48:49.562Z,26.30
2022-08-19T04:50:53.335Z,26.83
2022-08-19T04:52:57.013Z,25.20
2022-08-19T04:54:59.859Z,28.00
2022-08-19T04:57:02.503Z,27.53
2022-08-19T04:59:05.621Z,27.43
2022-08-19T05:01:11.239Z,27.30
2022-08-19T05:03:14.031Z,27.07
2022-08-19T05:05:16.884Z,28.47
2022-08-19T05:07:19.799Z,25.17
2022-08-19T05:09:22.720Z,28.03
2022-08-19T05:11:29.331Z,28.17
2022-08-19T05:13:32.350Z,27.73
2022-08-19T05:15:35.698Z,27.67
2022-08-19T05:17:59.802Z,26.40
2022-08-19T05:20:20.524Z,28.97
2022-08-19T05:22:36.439Z,26.80
2022-08-19T05:24:56.422Z,26.90
2022-08-19T05:27:03.518Z,25.63
2022-08-19T05:29:08.296Z,28.40
2022-08-19T05:31:13.562Z,27.27
2022-08-19T05:33:17.560Z,26.00
2022-08-19T05:35:20.356Z,27.80
2022-08-19T05:37:23.454Z,25.77
2022-08-19T05:39:29.042Z,26.83
2022-08-19T05:41:32.044Z,26.80
2022-08-19T05:43:34.760Z,26.63
2022-08-19T05:45:40.824Z,26.60
2022-08-19T05:47:43.529Z,26.17
2022-08-19T05:49:47.610Z,28.57
2022-08-19T05:51:51.208Z,26.20
2022-08-19T05:53:53.953Z,28.20
2022-08-19T05:55:56.591Z,26.77
2022-08-19T05:58:02.652Z,27.00
2022-08-19T06:00:10.339Z,25.80
2022-08-19T06:02:14.379Z,27.80
2022-08-19T06:04:17.892Z,26.60
2022-08-19T06:06:22.817Z,25.63
2022-08-19T06:08:33.774Z,25.63
2022-08-19T06:10:37.880Z,25.80
2022-08-19T06:12:40.591Z,25.83
2022-08-19T06:14:43.439Z,27.13
2022-08-19T06:16:47.199Z,26.77
2022-08-19T06:18:52.369Z,26.57
2022-08-19T06:20:56.256Z,25.40
2022-08-19T06:23:00.539Z,26.17
2022-08-19T06:25:04.951Z,26.07
2022-08-19T06:27:07.653Z,28.30
2022-08-19T06:29:12.300Z,28.33
2022-08-19T06:31:29.573Z,28.20
2022-08-19T06:33:32.363Z,31.20
2022-08-19T06:35:40.941Z,28.30
2022-08-19T06:37:43.937Z,28.03
2022-08-19T06:39:48.233Z,29.73
2022-08-19T06:41:55.567Z,29.70
2022-08-19T06:44:01.025Z,29.20
2022-08-19T06:46:04.615Z,30.10
2022-08-19T06:48:09.074Z,30.30
2022-08-19T06:50:15.132Z,29.60
2022-08-19T06:52:19.521Z,30.20
2022-08-19T06:54:22.451Z,30.50
2022-08-19T06:56:35.499Z,29.87
2022-08-19T06:58:39.087Z,28.73
2022-08-19T07:00:42.092Z,29.17
2022-08-19T07:02:49.790Z,29.40
2022-08-19T07:05:02.209Z,28.20
2022-08-19T07:07:19.684Z,28.27
2022-08-19T07:09:23.910Z,28.60
2022-08-19T07:11:28.364Z,28.23
2022-08-19T07:13:37.295Z,28.60
2022-08-19T07:15:40.022Z,27.47
2022-08-19T07:17:44.218Z,26.80
2022-08-19T07:19:47.436Z,27.50
2022-08-19T07:21:53.686Z,27.67
2022-08-19T07:23:57.579Z,26.33
2022-08-19T07:26:00.713Z,28.17
2022-08-19T07:28:05.260Z,27.87
2022-08-19T07:30:11.763Z,27.67
2022-08-19T07:32:15.066Z,27.07
2022-08-19T07:34:18.504Z,27.27
2022-08-19T07:36:24.248Z,26.17
2022-08-19T07:38:28.776Z,26.50
2022-08-19T07:40:32.399Z,25.77
2022-08-19T07:42:35.142Z,27.77
2022-08-19T07:46:47.262Z,28.10
2022-08-19T07:48:53.187Z,29.50
2022-08-19T07:50:57.881Z,29.27
2022-08-19T07:53:00.598Z,28.03
2022-08-19T07:55:04.854Z,29.23
2022-08-19T07:57:07.997Z,28.43
2022-08-19T07:59:10.900Z,31.00
2022-08-19T08:01:17.986Z,28.27
2022-08-19T08:03:44.444Z,28.80
2022-08-19T08:06:05.332Z,27.83
2022-08-19T08:08:37.205Z,30.83
2022-08-19T08:10:48.716Z,29.67
2022-08-19T08:13:09.446Z,29.27
2022-08-19T08:15:19.641Z,28.00
2022-08-19T08:17:31.067Z,30.00
2022-08-19T08:19:51.478Z,29.87
2022-08-19T08:21:55.836Z,29.77
2022-08-19T08:23:57.609Z,31.73
2022-08-19T08:26:01.215Z,31.13
2022-08-19T08:28:05.981Z,30.70
2022-08-19T08:30:10.808Z,31.50
2022-08-19T08:32:14.246Z,28.30
2022-08-19T08:34:19.112Z,29.63
2022-08-19T08:36:21.850Z,29.30
2022-08-19T08:38:24.771Z,28.70
2022-08-19T08:40:35.416Z,29.20
2022-08-19T08:42:48.537Z,29.10
2022-08-19T08:47:13.392Z,29.50
2022-08-19T08:49:28.879Z,28.17
2022-08-19T08:51:35.817Z,30.60
2022-08-19T08:53:41.981Z,29.03
2022-08-19T08:55:46.424Z,29.70
2022-08-19T08:57:57.744Z,30.03
2022-08-19T09:00:06.628Z,29.03
2022-08-19T09:02:18.269Z,30.30
2022-08-19T09:04:23.484Z,29.83
2022-08-19T09:06:34.063Z,28.03
2022-08-19T09:08:46.719Z,28.80
2022-08-19T09:10:55.236Z,29.70
2022-08-19T09:13:12.633Z,27.97
2022-08-19T09:15:18.357Z,27.73
2022-08-19T09:17:29.030Z,28.27
2022-08-19T09:19:33.125Z,28.90
2022-08-19T09:21:36.344Z,28.30
2022-08-19T09:23:41.418Z,29.23
2022-08-19T09:25:44.173Z,28.30
2022-08-19T09:27:47.647Z,28.10
2022-08-19T09:29:50.440Z,28.60
2022-08-19T09:31:53.342Z,29.43
2022-08-19T09:33:58.138Z,28.40
2022-08-19T09:36:08.742Z,28.57
2022-08-19T09:38:11.607Z,29.10
2022-08-19T09:40:15.399Z,27.77
2022-08-19T09:42:29.925Z,29.40
2022-08-19T09:44:34.697Z,27.10
2022-08-19T09:46:37.394Z,28.77
2022-08-19T09:48:40.750Z,28.33
2022-08-19T09:50:51.966Z,28.03
2022-08-19T09:52:57.979Z,29.70
2022-08-19T09:55:01.032Z,28.53
2022-08-19T09:57:10.151Z,30.30
2022-08-19T09:59:13.403Z,28.90
2022-08-19T10:01:21.144Z,29.37
2022-08-19T10:03:25.397Z,29.00
2022-08-19T10:05:48.641Z,28.57
2022-08-19T10:07:52.366Z,30.30
2022-08-19T10:09:56.397Z,31.17
2022-08-19T10:12:02.674Z,29.20
2022-08-19T10:14:07.531Z,27.73
2022-08-19T10:16:13.630Z,29.47
2022-08-19T10:18:18.669Z,31.10
2022-08-19T10:20:22.777Z,27.60
2022-08-19T10:22:26.237Z,28.53
2022-08-19T10:24:29.524Z,28.10
2022-08-19T10:26:37.168Z,27.67
2022-08-19T10:28:40.379Z,27.13
2022-08-19T10:30:45.498Z,27.87
2022-08-19T10:32:48.525Z,28.23
2022-08-19T10:34:52.828Z,26.60
2022-08-19T10:37:02.253Z,28.10
2022-08-19T10:39:08.295Z,28.13
2022-08-19T10:41:14.843Z,27.73
2022-08-19T10:43:18.969Z,27.43
2022-08-19T10:45:23.125Z,25.80
2022-08-19T10:47:31.507Z,24.53
2022-08-19T10:49:54.728Z,25.20
2022-08-19T10:52:18.775Z,26.00
2022-08-19T10:54:31.078Z,25.40
2022-08-19T10:56:53.901Z,24.97
2022-08-19T10:58:58.874Z,26.10
2022-08-19T11:01:01.699Z,25.50
2022-08-19T11:03:04.537Z,25.53
2022-08-19T11:05:13.572Z,24.03
2022-08-19T11:07:16.407Z,26.27
2022-08-19T11:09:21.684Z,22.93
2022-08-19T11:11:24.829Z,23.07
2022-08-19T11:13:27.943Z,23.07
2022-08-19T11:15:34.375Z,22.90
2022-08-19T11:17:41.402Z,22.77
2022-08-19T11:19:44.208Z,23.10
2022-08-19T11:21:49.579Z,23.07
2022-08-19T11:23:58.782Z,21.40
2022-08-19T11:26:03.706Z,21.27
2022-08-19T11:28:07.001Z,20.87
2022-08-19T11:30:13.195Z,20.47
2022-08-19T11:32:17.820Z,21.20
2022-08-19T11:34:24.741Z,21.03
2022-08-19T11:36:29.328Z,19.40
2022-08-19T11:38:32.815Z,18.27
2022-08-19T11:40:35.505Z,20.60
2022-08-19T11:42:55.632Z,22.60
2022-08-19T11:44:58.501Z,23.30
2022-08-19T11:47:09.147Z,24.83
2022-08-19T11:49:14.365Z,23.47
2022-08-19T11:51:22.420Z,25.07
2022-08-19T11:53:25.946Z,26.20
2022-08-19T11:55:28.714Z,25.57
2022-08-19T11:57:31.414Z,26.87
2022-08-19T11:59:34.134Z,23.27
2022-08-19T12:01:36.867Z,25.00
2022-08-19T12:03:40.355Z,24.03
2022-08-19T12:05:44.536Z,25.77
2022-08-19T12:07:47.289Z,24.30
2022-08-19T12:09:50.144Z,26.33
2022-08-19T12:11:53.052Z,25.07
2022-08-19T12:13:55.947Z,28.50
2022-08-19T12:15:59.178Z,28.50
2022-08-19T12:18:01.941Z,30.70
2022-08-19T12:20:07.587Z,32.43
2022-08-19T12:22:11.791Z,31.90
2022-08-19T12:24:14.911Z,30.83
2022-08-19T12:26:19.411Z,34.60
2022-08-19T12:28:23.835Z,33.07
2022-08-19T12:30:27.978Z,32.73
2022-08-19T12:32:30.941Z,33.67
2022-08-19T12:34:34.861Z,33.50
2022-08-19T12:36:37.646Z,32.37
2022-08-19T12:38:42.767Z,33.80
2022-08-19T12:40:48.468Z,32.70
2022-08-19T12:42:52.076Z,33.60
2022-08-19T12:44:56.146Z,36.20
2022-08-19T12:46:59.829Z,34.17
2022-08-19T12:49:06.226Z,34.87
2022-08-19T12:51:28.022Z,35.03
2022-08-19T12:53:31.139Z,34.50
2022-08-19T12:55:35.768Z,35.07
2022-08-19T12:57:41.220Z,32.97
2022-08-19T12:59:44.694Z,32.97
2022-08-19T13:01:48.011Z,32.67
2022-08-19T13:03:51.100Z,33.40
2022-08-19T13:05:54.097Z,35.10
2022-08-19T13:08:01.794Z,35.90
2022-08-19T13:10:08.026Z,34.53
2022-08-19T13:12:14.065Z,34.90
2022-08-19T13:14:16.996Z,34.43
2022-08-19T13:16:23.524Z,35.40
2022-08-19T13:18:27.507Z,35.87
2022-08-19T13:20:31.019Z,35.97
2022-08-19T13:22:34.523Z,35.97
2022-08-19T13:24:42.920Z,34.90
2022-08-19T13:26:52.155Z,36.40
2022-08-19T13:29:15.271Z,36.40
2022-08-19T13:31:37.125Z,38.47
2022-08-19T13:33:40.016Z,36.03
2022-08-19T13:35:44.720Z,37.30
2022-08-19T13:37:47.674Z,36.60
2022-08-19T13:39:50.701Z,35.90
2022-08-19T13:41:53.636Z,38.07
2022-08-19T13:43:57.973Z,37.80
2022-08-19T13:46:01.505Z,38.13
2022-08-19T13:48:08.094Z,38.87
2022-08-19T13:50:12.823Z,37.33
2022-08-19T13:52:15.696Z,38.07
2022-08-19T13:54:19.185Z,38.33
2022-08-19T13:56:26.014Z,37.80
2022-08-19T13:58:32.591Z,36.87
2022-08-19T14:00:39.725Z,39.60
2022-08-19T14:02:44.186Z,41.90
2022-08-19T14:04:48.305Z,40.47
2022-08-19T14:06:54.486Z,39.20
2022-08-19T14:08:57.730Z,40.20
2022-08-19T14:11:06.381Z,40.63
2022-08-19T14:13:10.042Z,40.57
2022-08-19T14:15:14.103Z,39.10
2022-08-19T14:17:19.950Z,39.90
2022-08-19T14:19:24.447Z,40.50
2022-08-19T14:21:37.523Z,40.50
2022-08-19T14:23:43.899Z,39.70
2022-08-19T14:25:47.420Z,40.33
2022-08-19T14:27:51.017Z,40.97
2022-08-19T14:29:56.086Z,39.57
2022-08-19T14:31:59.944Z,39.10
2022-08-19T14:34:04.865Z,39.07
2022-08-19T14:36:16.781Z,40.07
2022-08-19T14:38:28.242Z,39.30
2022-08-19T14:40:35.652Z,37.77
2022-08-19T14:42:39.109Z,37.33
2022-08-19T14:44:42.241Z,39.40
2022-08-19T14:46:50.497Z,37.87
2022-08-19T14:48:55.425Z,38.60
2022-08-19T14:51:00.567Z,36.90
2022-08-19T14:53:08.128Z,38.53
2022-08-19T14:55:19.245Z,37.20
2022-08-19T14:57:24.541Z,37.20
2022-08-19T14:59:27.553Z,36.60
2022-08-19T15:01:30.544Z,35.30
2022-08-19T15:03:34.548Z,35.20
2022-08-19T15:05:37.773Z,35.30
2022-08-19T15:07:42.876Z,35.40
2022-08-19T15:09:46.604Z,35.57
2022-08-19T15:11:52.486Z,34.27
2022-08-19T15:13:57.069Z,35.10
2022-08-19T15:15:59.934Z,34.60
2022-08-19T15:18:03.543Z,35.43
2022-08-19T15:20:07.603Z,34.63
2022-08-19T15:22:10.510Z,33.43
2022-08-19T15:24:14.630Z,32.10
2022-08-19T15:26:18.715Z,34.07
2022-08-19T15:28:21.621Z,34.23
2022-08-19T15:30:28.086Z,30.73
2022-08-19T15:32:32.542Z,31.07
2022-08-19T15:34:35.541Z,31.23
2022-08-19T15:36:42.061Z,30.77
2022-08-19T15:38:47.231Z,29.80
2022-08-19T15:40:52.874Z,27.23
2022-08-19T15:42:55.715Z,27.50
2022-08-19T15:45:00.787Z,25.83
2022-08-19T15:47:04.773Z,27.33
2022-08-19T15:49:08.172Z,27.40
2022-08-19T15:51:10.855Z,27.00
2022-08-19T15:53:13.889Z,27.80
2022-08-19T15:55:33.820Z,26.57
2022-08-19T15:57:56.168Z,26.87
2022-08-19T16:00:16.415Z,26.20
2022-08-19T16:02:39.190Z,26.33
2022-08-19T16:04:59.599Z,26.00
2022-08-19T16:07:03.678Z,26.50
2022-08-19T16:09:06.452Z,27.43
2022-08-19T16:11:09.147Z,26.87
2022-08-19T16:13:13.194Z,28.57
2022-08-19T16:15:15.935Z,27.03
2022-08-19T16:17:18.600Z,27.23
2022-08-19T16:19:21.311Z,28.17
2022-08-19T16:21:26.105Z,28.63
2022-08-19T16:23:29.199Z,27.00
2022-08-19T16:25:32.047Z,27.90
2022-08-19T16:27:35.164Z,28.40
2022-08-19T16:29:39.685Z,27.37
2022-08-19T16:31:44.394Z,27.90
2022-08-19T16:33:47.058Z,29.20
2022-08-19T16:35:56.093Z,28.67
2022-08-19T16:38:03.659Z,27.50
2022-08-19T16:40:09.390Z,28.33
2022-08-19T16:42:13.929Z,29.10
2022-08-19T16:44:17.733Z,30.40
2022-08-19T16:46:22.783Z,29.33
2022-08-19T16:48:29.754Z,29.80
2022-08-19T16:50:48.703Z,29.20
2022-08-19T16:52:51.723Z,29.87
2022-08-19T16:54:54.928Z,28.90
2022-08-19T16:56:57.573Z,29.30
2022-08-19T16:59:00.593Z,30.20
2022-08-19T17:01:07.897Z,28.80
2022-08-19T17:03:15.073Z,31.17
2022-08-19T17:05:18.826Z,32.63
2022-08-19T17:07:21.532Z,32.60
2022-08-19T17:09:25.828Z,33.07
2022-08-19T17:11:31.590Z,32.10
2022-08-19T17:13:34.720Z,31.33
2022-08-19T17:15:37.377Z,30.70
2022-08-19T17:17:40.030Z,31.13
2022-08-19T17:19:44.553Z,31.10
2022-08-19T17:21:47.212Z,29.33
2022-08-19T17:23:50.441Z,31.27
2022-08-19T17:25:53.384Z,29.27
2022-08-19T17:27:56.485Z,28.80
2022-08-19T17:30:00.181Z,30.60
2022-08-19T17:32:03.305Z,30.57
2022-08-19T17:34:06.953Z,29.77
2022-08-19T17:36:13.646Z,28.93
2022-08-19T17:38:19.042Z,30.10
2022-08-19T17:40:23.888Z,28.73
2022-08-19T17:42:26.889Z,29.80
2022-08-19T17:44:29.510Z,28.80
2022-08-19T17:46:32.317Z,30.10
2022-08-19T17:48:38.741Z,30.00
2022-08-19T17:50:41.645Z,29.93
2022-08-19T17:52:45.809Z,29.83
2022-08-19T17:54:48.540Z,30.70
2022-08-19T17:56:51.448Z,29.83
2022-08-19T17:59:00.397Z,30.67
2022-08-19T18:01:05.131Z,31.00
2022-08-19T18:03:08.495Z,29.27
2022-08-19T18:05:15.460Z,30.10
2022-08-19T18:07:21.514Z,29.80
2022-08-19T18:09:27.856Z,30.27
2022-08-19T18:11:30.636Z,28.43
2022-08-19T18:13:33.398Z,30.73
2022-08-19T18:15:36.156Z,28.70
2022-08-19T18:17:42.016Z,30.17
2022-08-19T18:19:46.052Z,31.30
2022-08-19T18:21:48.867Z,33.53
2022-08-19T18:23:51.544Z,30.80
2022-08-19T18:26:06.260Z,32.03
2022-08-19T18:28:08.930Z,33.90
2022-08-19T18:30:13.428Z,33.30
2022-08-19T18:32:18.150Z,32.10
2022-08-19T18:34:26.988Z,32.23
2022-08-19T18:36:52.483Z,31.43
2022-08-19T18:39:09.913Z,30.93
2022-08-19T18:41:33.919Z,33.03
2022-08-19T18:43:54.372Z,32.10
2022-08-19T18:46:14.776Z,32.93
2022-08-19T18:48:35.071Z,32.30
2022-08-19T18:50:40.405Z,34.17
2022-08-19T18:52:43.115Z,35.47
2022-08-19T18:54:47.135Z,34.63
2022-08-19T18:56:55.555Z,34.80
2022-08-19T18:58:58.741Z,35.50
2022-08-19T19:01:10.520Z,35.00
2022-08-19T19:03:13.242Z,38.20
2022-08-19T19:05:16.254Z,37.00
2022-08-19T19:07:19.972Z,37.50
2022-08-19T19:09:25.041Z,39.17
2022-08-19T19:11:29.959Z,38.33
2022-08-19T19:13:35.662Z,36.60
2022-08-19T19:15:39.511Z,38.23
2022-08-19T19:17:42.144Z,40.43
2022-08-19T19:19:45.624Z,39.50
2022-08-19T19:21:49.924Z,39.80
2022-08-19T19:23:53.942Z,38.50
2022-08-19T19:25:56.632Z,38.37
2022-08-19T19:27:59.421Z,39.73
2022-08-19T19:30:03.613Z,37.57
2022-08-19T19:32:08.244Z,38.93
2022-08-19T19:34:28.843Z,36.53
2022-08-19T19:36:32.683Z,37.50
2022-08-19T19:38:35.414Z,39.60
2022-08-19T19:40:38.112Z,38.20
2022-08-19T19:42:40.772Z,37.27
2022-08-19T19:44:48.037Z,38.47
2022-08-19T19:46:55.699Z,37.17
2022-08-19T19:49:00.327Z,37.90
2022-08-19T19:51:04.910Z,36.63
2022-08-19T19:53:07.650Z,38.80
2022-08-19T19:55:11.720Z,36.20
2022-08-19T19:57:15.455Z,36.23
2022-08-19T19:59:18.725Z,37.07
2022-08-19T20:01:24.698Z,39.00
2022-08-19T20:03:30.839Z,36.97
2022-08-19T20:05:33.555Z,34.90
2022-08-19T20:07:54.173Z,36.60
2022-08-19T20:10:00.195Z,36.70
2022-08-19T20:12:03.124Z,36.17
2022-08-19T20:14:11.637Z,38.60
2022-08-19T20:16:15.215Z,36.97
2022-08-19T20:18:18.968Z,37.23
2022-08-19T20:20:23.659Z,35.37
2022-08-19T20:22:26.571Z,34.63
2022-08-19T20:24:32.360Z,35.03
2022-08-19T20:26:35.207Z,34.87
2022-08-19T20:28:38.067Z,34.40
2022-08-19T20:30:48.104Z,33.73
2022-08-19T20:32:51.588Z,34.20
2022-08-19T20:34:54.357Z,32.20
2022-08-19T20:36:58.455Z,33.67
2022-08-19T20:39:01.899Z,35.07
2022-08-19T20:41:04.942Z,32.53
2022-08-19T20:43:09.868Z,32.50
2022-08-19T20:45:29.411Z,30.37
2022-08-19T20:47:36.026Z,27.60
2022-08-19T20:49:39.125Z,29.37
2022-08-19T20:51:41.922Z,27.43
2022-08-19T20:53:46.037Z,26.07
2022-08-19T20:55:50.067Z,23.37
2022-08-19T20:57:52.761Z,24.23
2022-08-19T20:59:55.451Z,21.57
2022-08-19T21:01:58.209Z,21.63
2022-08-19T21:04:00.846Z,20.77
2022-08-19T21:06:04.681Z,16.33
2022-08-19T21:08:09.068Z,14.00
2022-08-19T21:10:13.150Z,15.30
2022-08-19T21:12:15.879Z,13.10
2022-08-19T21:14:19.072Z,13.30
2022-08-19T21:16:22.005Z,12.10
2022-08-19T21:18:26.880Z,11.80
2022-08-19T21:20:29.835Z,11.60
2022-08-19T21:22:32.544Z,9.70
2022-08-19T21:24:35.242Z,9.00
2022-08-19T21:26:39.397Z,9.43
2022-08-19T21:28:42.098Z,8.03
2022-08-19T21:30:44.827Z,7.03
2022-08-19T21:32:52.279Z,7.73
2022-08-19T21:34:55.408Z,8.10
2022-08-19T21:36:58.056Z,7.60
2022-08-19T21:39:00.683Z,7.40
2022-08-19T21:41:06.083Z,7.00
2022-08-19T21:43:10.545Z,6.60
2022-08-19T21:45:17.314Z,6.03
2022-08-19T21:47:21.269Z,6.17
2022-08-19T21:49:24.230Z,5.70
2022-08-19T21:51:27.189Z,5.00
2022-08-19T21:53:31.417Z,5.13
2022-08-19T21:55:37.352Z,4.77
2022-08-19T21:57:41.413Z,4.53
2022-08-19T21:59:45.592Z,4.17
2022-08-19T22:01:54.058Z,4.13
2022-08-19T22:04:01.632Z,3.70
2022-08-19T22:06:04.618Z,3.43
2022-08-19T22:08:07.287Z,3.60
2022-08-19T22:10:11.946Z,3.60
2022-08-19T22:12:23.411Z,3.90
2022-08-19T22:14:26.425Z,3.43
2022-08-19T22:16:30.449Z,3.30
2022-08-19T22:18:34.636Z,3.53
2022-08-19T22:20:37.943Z,3.27
2022-08-19T22:22:47.196Z,3.10
2022-08-19T22:24:49.901Z,2.90
2022-08-19T22:26:52.589Z,3.20
2022-08-19T22:28:55.390Z,3.20
2022-08-19T22:30:59.402Z,3.37
2022-08-19T22:33:07.223Z,3.40
2022-08-19T22:35:10.212Z,2.90
2022-08-19T22:37:13.957Z,3.27
2022-08-19T22:39:16.660Z,3.10
2022-08-19T22:41:19.363Z,3.37
2022-08-19T22:43:25.036Z,2.80
2022-08-19T22:45:29.097Z,2.97
2022-08-19T22:47:32.262Z,3.10
2022-08-19T22:49:38.304Z,3.27
2022-08-19T22:51:59.484Z,3.03
2022-08-19T22:54:02.952Z,3.23
2022-08-19T22:56:09.881Z,2.80
2022-08-19T22:58:15.857Z,3.03
2022-08-19T23:00:30.794Z,3.30
2022-08-19T23:02:38.190Z,3.40
2022-08-19T23:04:42.198Z,3.07
2022-08-19T23:06:44.902Z,3.37
2022-08-19T23:08:47.608Z,3.83
2022-08-19T23:10:50.375Z,4.10
2022-08-19T23:12:54.045Z,3.93
2022-08-19T23:14:58.492Z,3.53
2022-08-19T23:17:01.370Z,3.83
2022-08-19T23:19:04.411Z,4.10
2022-08-19T23:21:09.570Z,4.10
2022-08-19T23:23:14.405Z,3.70
2022-08-19T23:25:21.371Z,3.90
2022-08-19T23:27:41.446Z,3.97
2022-08-19T23:30:01.787Z,3.90
2022-08-19T23:32:07.035Z,4.07
2022-08-19T23:34:10.017Z,4.03
2022-08-19T23:36:16.779Z,3.90
2022-08-19T23:38:22.636Z,3.73
2022-08-19T23:40:25.424Z,3.70
2022-08-19T23:42:28.830Z,3.77
2022-08-19T23:44:31.604Z,3.57
2022-08-19T23:46:50.531Z,3.70
2022-08-19T23:48:59.680Z,3.43
2022-08-19T23:51:04.151Z,3.30
2022-08-19T23:53:09.209Z,3.10
2022-08-19T23:55:16.614Z,3.47
2022-08-19T23:57:19.285Z,3.53
2022-08-19T23:59:22.526Z,2.90
